Time,TemperatureF,DewpointF,PressureIn,WindDirection,WindDirectionDegrees,WindSpeedMPH,WindSpeedGustMPH,Humidity,HourlyPrecipIn,Conditions,Clouds,dailyrainin,SoftwareType,DateUTC
2013-07-23 00:01:00,62.8,59.8,30.07,East,89,0.0,0.0,90,0.00,CLR,CLR,0.00,WeatherDisplay:10.34,2013-07-23 04:01:00,
2013-07-23 00:04:00,62.8,59.8,30.07,East,89,0.0,0.0,90,0.00,CLR,CLR,0.00,WeatherDisplay:10.34,2013-07-23 04:04:00,
2013-07-23 00:05:00,62.8,59.8,30.07,East,89,0.0,0.0,90,0.00,CLR,CLR,0.00,WeatherDisplay:10.34,2013-07-23 04:05:00,
2013-07-23 00:06:00,62.8,59.8,30.07,East,89,0.0,0.0,90,0.00,CLR,CLR,0.00,WeatherDisplay:10.34,2013-07-23 04:06:00,
2013-07-23 00:12:00,62.8,59.8,30.07,East,89,0.0,0.0,90,0.00,CLR,CLR,0.00,WeatherDisplay:10.34,2013-07-23 04:12:00,
2013-07-23 00:16:00,62.8,59.8,30.07,East,89,0.0,0.0,90,0.00,CLR,CLR,0.00,WeatherDisplay:10.34,2013-07-23 04:16:00,
2013-07-23 00:21:00,63.0,60.3,30.07,East,89,0.0,0.0,91,0.00,CLR,CLR,0.00,WeatherDisplay:10.34,2013-07-23 04:21:00,
2013-07-23 00:26:00,63.0,60.3,30.07,East,89,0.0,0.0,91,0.00,CLR,CLR,0.00,WeatherDisplay:10.34,2013-07-23 04:26:00,
2013-07-23 00:31:00,63.0,60.0,30.07,East,89,0.0,0.0,90,0.00,CLR,CLR,0.00,WeatherDisplay:10.34,2013-07-23 04:31:00,
2013-07-23 00:36:00,63.0,60.3,30.07,East,89,0.0,0.0,91,0.00,CLR,CLR,0.00,WeatherDisplay:10.34,2013-07-23 04:36:00,
2013-07-23 00:41:00,63.0,60.3,30.07,East,89,0.0,0.0,91,0.00,CLR,CLR,0.00,WeatherDisplay:10.34,2013-07-23 04:41:00,
2013-07-23 00:46:00,63.0,60.3,30.07,East,89,0.0,0.0,91,0.00,CLR,CLR,0.00,WeatherDisplay:10.34,2013-07-23 04:46:00,
2013-07-23 00:51:00,62.8,60.1,30.07,East,89,0.0,0.0,91,0.00,CLR,CLR,0.00,WeatherDisplay:10.34,2013-07-23 04:51:00,
2013-07-23 00:56:00,62.8,60.1,30.07,East,89,0.0,0.0,91,0.00,CLR,CLR,0.00,WeatherDisplay:10.34,2013-07-23 04:56:00,
2013-07-23 01:01:00,63.0,60.3,30.07,East,89,0.0,0.0,91,0.00,CLR,CLR,0.00,WeatherDisplay:10.34,2013-07-23 05:01:00,
2013-07-23 01:06:00,63.0,60.3,30.07,East,89,0.0,0.0,91,0.00,CLR,CLR,0.00,WeatherDisplay:10.34,2013-07-23 05:06:00,
2013-07-23 01:11:00,63.0,60.3,30.07,East,89,0.0,0.0,91,0.00,CLR,CLR,0.00,WeatherDisplay:10.34,2013-07-23 05:11:00,
2013-07-23 01:16:00,63.0,60.3,30.07,East,89,0.0,0.0,91,0.00,CLR,CLR,0.00,WeatherDisplay:10.34,2013-07-23 05:16:00,
2013-07-23 01:21:00,63.0,60.3,30.07,East,89,0.0,0.0,91,0.00,CLR,CLR,0.00,WeatherDisplay:10.34,2013-07-23 05:21:00,
2013-07-23 01:26:00,63.0,60.3,30.07,East,89,0.0,0.0,91,0.00,CLR,CLR,0.00,WeatherDisplay:10.34,2013-07-23 05:26:00,
2013-07-23 01:31:00,63.0,60.3,30.04,East,89,0.0,0.0,91,0.00,CLR,CLR,0.00,WeatherDisplay:10.34,2013-07-23 05:31:00,
2013-07-23 01:36:00,63.0,60.6,30.04,East,89,0.0,0.0,92,0.00,CLR,CLR,0.00,WeatherDisplay:10.34,2013-07-23 05:36:00,
2013-07-23 01:41:00,63.0,60.3,30.04,East,89,0.0,0.0,91,0.00,CLR,CLR,0.00,WeatherDisplay:10.34,2013-07-23 05:41:00,
2013-07-23 01:46:00,62.8,60.4,30.04,East,89,0.0,0.0,92,0.00,CLR,CLR,0.00,WeatherDisplay:10.34,2013-07-23 05:46:00,
2013-07-23 01:51:00,62.8,60.4,30.04,East,89,0.0,0.0,92,0.00,CLR,CLR,0.00,WeatherDisplay:10.34,2013-07-23 05:51:00,
2013-07-23 01:56:00,62.8,60.4,30.04,East,89,0.0,0.0,92,0.00,CLR,CLR,0.00,WeatherDisplay:10.34,2013-07-23 05:56:00,
2013-07-23 02:01:00,62.8,60.4,30.04,East,89,0.0,0.0,92,0.00,CLR,CLR,0.00,WeatherDisplay:10.34,2013-07-23 06:01:00,
2013-07-23 02:06:00,62.8,60.4,30.04,East,89,0.0,0.0,92,0.00,BKN,BKN,0.00,WeatherDisplay:10.34,2013-07-23 06:06:00,
2013-07-23 02:11:00,62.6,60.2,30.04,East,90,0.0,0.0,92,0.00,BKN,BKN,0.00,WeatherDisplay:10.34,2013-07-23 06:11:00,
2013-07-23 02:16:00,62.6,60.2,30.04,East,89,0.0,0.0,92,0.00,BKN,BKN,0.00,WeatherDisplay:10.34,2013-07-23 06:16:00,
2013-07-23 02:21:00,62.6,60.2,30.04,East,89,0.0,0.0,92,0.00,BKN,BKN,0.00,WeatherDisplay:10.34,2013-07-23 06:21:00,
2013-07-23 02:26:00,62.6,60.2,30.04,East,89,0.0,0.0,92,0.00,BKN,BKN,0.00,WeatherDisplay:10.34,2013-07-23 06:26:00,
2013-07-23 02:31:00,62.6,60.2,30.04,East,89,0.0,0.0,92,0.00,BKN,BKN,0.00,WeatherDisplay:10.34,2013-07-23 06:31:00,
2013-07-23 02:36:00,62.4,60.1,30.04,East,89,0.0,0.0,92,0.00,BKN,BKN,0.00,WeatherDisplay:10.34,2013-07-23 06:36:00,
2013-07-23 02:41:00,62.4,60.1,30.04,East,89,0.0,0.0,92,0.00,BKN,BKN,0.00,WeatherDisplay:10.34,2013-07-23 06:41:00,
2013-07-23 02:46:00,62.4,60.1,30.01,East,89,0.0,0.0,92,0.00,BKN,BKN,0.00,WeatherDisplay:10.34,2013-07-23 06:46:00,
2013-07-23 02:51:00,62.2,59.9,30.01,East,89,0.0,0.0,92,0.00,BKN,BKN,0.00,WeatherDisplay:10.34,2013-07-23 06:51:00,
2013-07-23 02:56:00,62.2,60.2,30.01,East,89,0.0,0.0,93,0.00,BKN,BKN,0.00,WeatherDisplay:10.34,2013-07-23 06:56:00,
2013-07-23 03:01:00,62.2,60.2,30.01,East,89,0.0,0.0,93,0.00,BKN,BKN,0.00,WeatherDisplay:10.34,2013-07-23 07:01:00,
2013-07-23 03:06:00,62.2,60.2,30.01,East,89,0.0,0.0,93,0.00,OVC,OVC,0.00,WeatherDisplay:10.34,2013-07-23 07:06:00,
2013-07-23 03:11:00,62.2,60.2,30.01,East,89,0.0,0.0,93,0.00,OVC,OVC,0.00,WeatherDisplay:10.34,2013-07-23 07:11:00,
2013-07-23 03:16:00,62.2,60.2,30.01,East,92,0.0,0.0,93,0.00,OVC,OVC,0.00,WeatherDisplay:10.34,2013-07-23 07:16:00,
2013-07-23 03:21:00,62.2,60.2,30.01,East,88,0.0,0.0,93,0.00,OVC,OVC,0.00,WeatherDisplay:10.34,2013-07-23 07:21:00,
2013-07-23 03:26:00,62.2,60.2,30.01,East,92,0.0,0.0,93,0.00,OVC,OVC,0.00,WeatherDisplay:10.34,2013-07-23 07:26:00,
2013-07-23 03:31:00,62.2,60.2,29.98,East,88,0.0,0.0,93,0.00,OVC,OVC,0.00,WeatherDisplay:10.34,2013-07-23 07:31:00,
2013-07-23 03:36:00,62.2,60.2,29.98,East,88,0.0,0.0,93,0.00,OVC,OVC,0.00,WeatherDisplay:10.34,2013-07-23 07:36:00,
2013-07-23 03:41:00,62.2,60.2,29.98,East,90,0.0,0.0,93,0.00,OVC,OVC,0.00,WeatherDisplay:10.34,2013-07-23 07:41:00,
2013-07-23 03:46:00,62.1,60.0,29.98,East,87,0.0,0.0,93,0.00,OVC,OVC,0.00,WeatherDisplay:10.34,2013-07-23 07:46:00,
2013-07-23 03:51:00,62.1,60.0,29.98,East,89,0.0,0.0,93,0.00,OVC,OVC,0.00,WeatherDisplay:10.34,2013-07-23 07:51:00,
2013-07-23 03:56:00,62.1,60.3,29.98,East,90,0.0,0.0,94,0.00,OVC,OVC,0.00,WeatherDisplay:10.34,2013-07-23 07:56:00,
2013-07-23 04:01:00,62.1,60.3,29.98,East,93,0.0,0.0,94,0.00,OVC,OVC,0.00,WeatherDisplay:10.34,2013-07-23 08:01:00,
2013-07-23 04:06:00,62.1,60.3,29.98,East,93,0.0,0.0,94,0.00,OVC,OVC,0.00,WeatherDisplay:10.34,2013-07-23 08:06:00,
2013-07-23 04:11:00,61.9,60.1,29.98,East,91,0.0,0.0,94,0.00,OVC,OVC,0.00,WeatherDisplay:10.34,2013-07-23 08:11:00,
2013-07-23 04:16:00,61.9,60.1,29.98,East,98,0.0,0.0,94,0.00,OVC,OVC,0.00,WeatherDisplay:10.34,2013-07-23 08:16:00,
2013-07-23 04:21:00,61.9,60.1,29.98,East,87,0.0,0.0,94,0.00,OVC,OVC,0.00,WeatherDisplay:10.34,2013-07-23 08:21:00,
2013-07-23 04:26:00,61.9,60.1,29.98,East,87,0.0,0.0,94,0.00,OVC,OVC,0.00,WeatherDisplay:10.34,2013-07-23 08:26:00,
2013-07-23 04:31:00,61.9,60.1,29.98,East,88,0.0,0.0,94,0.00,OVC,OVC,0.00,WeatherDisplay:10.34,2013-07-23 08:31:00,
2013-07-23 04:36:00,61.9,60.1,29.98,East,95,0.0,0.0,94,0.00,OVC,OVC,0.00,WeatherDisplay:10.34,2013-07-23 08:36:00,
2013-07-23 04:41:00,61.9,60.1,29.98,East,88,0.0,0.0,94,0.00,OVC,OVC,0.00,WeatherDisplay:10.34,2013-07-23 08:41:00,
2013-07-23 04:46:00,61.7,60.0,29.95,East,87,0.0,0.0,94,0.00,OVC,OVC,0.00,WeatherDisplay:10.34,2013-07-23 08:46:00,
2013-07-23 04:51:00,61.5,59.8,29.95,East,88,0.0,0.0,94,0.00,OVC,OVC,0.00,WeatherDisplay:10.34,2013-07-23 08:51:00,
2013-07-23 04:56:00,61.3,59.6,29.95,East,88,0.0,0.0,94,0.00,OVC,OVC,0.00,WeatherDisplay:10.34,2013-07-23 08:56:00,
2013-07-23 05:01:00,61.2,59.4,29.95,East,87,0.0,0.0,94,0.00,OVC,OVC,0.00,WeatherDisplay:10.34,2013-07-23 09:01:00,
2013-07-23 05:06:00,61.2,59.4,29.95,East,88,0.0,0.0,94,0.00,OVC,OVC,0.00,WeatherDisplay:10.34,2013-07-23 09:06:00,
2013-07-23 05:11:00,61.2,59.7,29.95,East,88,0.0,0.0,95,0.00,OVC,OVC,0.00,WeatherDisplay:10.34,2013-07-23 09:11:00,
2013-07-23 05:16:00,61.0,59.2,29.95,East,94,0.0,0.0,94,0.00,OVC,OVC,0.00,WeatherDisplay:10.34,2013-07-23 09:16:00,
2013-07-23 05:21:00,61.0,59.2,29.95,East,88,0.0,0.0,94,0.00,OVC,OVC,0.00,WeatherDisplay:10.34,2013-07-23 09:21:00,
2013-07-23 05:27:00,61.2,59.7,29.95,East,87,0.0,0.0,95,0.00,OVC,OVC,0.00,WeatherDisplay:10.34,2013-07-23 09:27:00,
2013-07-23 05:32:00,61.2,59.7,29.95,East,88,0.0,0.0,95,0.00,OVC,OVC,0.00,WeatherDisplay:10.34,2013-07-23 09:32:00,
2013-07-23 05:37:00,61.2,59.7,29.95,East,87,0.0,0.0,95,0.00,OVC,OVC,0.00,WeatherDisplay:10.34,2013-07-23 09:37:00,
2013-07-23 05:42:00,61.2,59.7,29.95,East,87,0.0,0.0,95,0.00,OVC,OVC,0.00,WeatherDisplay:10.34,2013-07-23 09:42:00,
2013-07-23 05:47:00,61.0,59.5,29.95,East,89,0.0,0.0,95,0.00,OVC,OVC,0.00,WeatherDisplay:10.34,2013-07-23 09:47:00,
2013-07-23 05:52:00,61.2,59.7,29.95,East,89,0.0,0.0,95,0.00,OVC,OVC,0.00,WeatherDisplay:10.34,2013-07-23 09:52:00,
2013-07-23 05:57:00,61.2,59.7,29.95,East,88,0.0,0.0,95,0.00,OVC,OVC,0.00,WeatherDisplay:10.34,2013-07-23 09:57:00,
2013-07-23 06:02:00,61.0,59.5,29.94,East,89,0.0,0.0,95,0.00,OVC,OVC,0.00,WeatherDisplay:10.34,2013-07-23 10:02:00,
2013-07-23 06:07:00,61.0,59.5,29.94,East,97,0.0,0.0,95,0.00,OVC,OVC,0.00,WeatherDisplay:10.34,2013-07-23 10:07:00,
2013-07-23 06:12:00,60.8,59.4,29.95,East,96,0.0,0.0,95,0.00,OVC,OVC,0.00,WeatherDisplay:10.34,2013-07-23 10:12:00,
2013-07-23 06:17:00,60.6,59.2,29.95,East,93,0.0,0.0,95,0.00,OVC,OVC,0.00,WeatherDisplay:10.34,2013-07-23 10:17:00,
2013-07-23 06:22:00,60.6,59.2,29.95,East,88,0.0,0.0,95,0.00,OVC,OVC,0.00,WeatherDisplay:10.34,2013-07-23 10:22:00,
2013-07-23 06:27:00,60.6,59.2,29.95,NE,46,0.0,0.0,95,0.00,OVC,OVC,0.00,WeatherDisplay:10.34,2013-07-23 10:27:00,
2013-07-23 06:32:00,60.4,59.0,29.92,East,96,0.0,0.0,95,0.00,OVC,OVC,0.00,WeatherDisplay:10.34,2013-07-23 10:32:00,
2013-07-23 06:37:00,60.4,59.0,29.92,East,96,0.0,0.0,95,0.00,OVC,OVC,0.00,WeatherDisplay:10.34,2013-07-23 10:37:00,
2013-07-23 06:42:00,60.3,58.8,29.92,East,96,0.0,0.0,95,0.00,OVC,OVC,0.00,WeatherDisplay:10.34,2013-07-23 10:42:00,
2013-07-23 06:47:00,60.3,58.8,29.92,North,9,3.0,3.0,95,0.00,OVC,OVC,0.00,WeatherDisplay:10.34,2013-07-23 10:47:00,
2013-07-23 06:52:00,60.3,58.8,29.92,WSW,255,0.0,3.0,95,0.00,OVC,OVC,0.00,WeatherDisplay:10.34,2013-07-23 10:52:00,
2013-07-23 06:57:00,60.1,58.6,29.92,NNE,25,5.0,7.0,95,0.00,OVC,OVC,0.00,WeatherDisplay:10.34,2013-07-23 10:57:00,
2013-07-23 07:02:00,60.1,58.6,29.92,North,2,0.0,0.0,95,0.00,OVC,OVC,0.00,WeatherDisplay:10.34,2013-07-23 11:02:00,
2013-07-23 07:07:00,60.1,58.6,29.92,North,2,0.0,0.0,95,0.00,OVC,OVC,0.00,WeatherDisplay:10.34,2013-07-23 11:07:00,
2013-07-23 07:12:00,60.1,58.6,29.92,NE,45,3.0,5.0,95,0.00,OVC,OVC,0.00,WeatherDisplay:10.34,2013-07-23 11:12:00,
2013-07-23 07:17:00,60.1,58.6,29.92,NE,45,0.0,2.0,95,0.00,OVC,OVC,0.00,WeatherDisplay:10.34,2013-07-23 11:17:00,
2013-07-23 07:22:00,60.1,58.6,29.92,NE,45,0.0,0.0,95,0.00,OVC,OVC,0.00,WeatherDisplay:10.34,2013-07-23 11:22:00,
2013-07-23 07:27:00,60.1,58.9,29.92,NE,43,0.0,3.0,96,0.00,OVC,OVC,0.00,WeatherDisplay:10.34,2013-07-23 11:27:00,
2013-07-23 07:32:00,60.1,58.9,29.92,NE,43,0.0,0.0,96,0.00,OVC,OVC,0.00,WeatherDisplay:10.34,2013-07-23 11:32:00,
2013-07-23 07:37:00,60.3,59.1,29.92,NE,43,0.0,0.0,96,0.00,OVC,OVC,0.00,WeatherDisplay:10.34,2013-07-23 11:37:00,
2013-07-23 07:42:00,60.3,59.1,29.92,NE,43,0.0,0.0,96,0.00,OVC,OVC,0.00,WeatherDisplay:10.34,2013-07-23 11:42:00,
2013-07-23 07:47:00,60.3,59.1,29.92,NE,43,0.0,3.0,96,0.00,OVC,OVC,0.00,WeatherDisplay:10.34,2013-07-23 11:47:00,
2013-07-23 07:52:00,60.3,59.1,29.92,NE,43,3.0,3.0,96,0.00,OVC,OVC,0.00,WeatherDisplay:10.34,2013-07-23 11:52:00,
2013-07-23 07:57:00,60.3,59.1,29.92,SSW,205,0.0,3.0,96,0.00,OVC,OVC,0.00,WeatherDisplay:10.34,2013-07-23 11:57:00,
2013-07-23 08:02:00,60.4,59.3,29.92,SSW,205,0.0,0.0,96,0.00,OVC,OVC,0.00,WeatherDisplay:10.34,2013-07-23 12:02:00,
2013-07-23 08:07:00,60.4,59.3,29.92,SSW,205,0.0,0.0,96,0.00,OVC,OVC,0.00,WeatherDisplay:10.34,2013-07-23 12:07:00,
2013-07-23 08:12:00,60.4,59.3,29.92,SSW,205,0.0,0.0,96,0.00,OVC,OVC,0.00,WeatherDisplay:10.34,2013-07-23 12:12:00,
2013-07-23 08:17:00,60.4,59.3,29.92,SSW,205,0.0,0.0,96,0.00,OVC,OVC,0.00,WeatherDisplay:10.34,2013-07-23 12:17:00,
2013-07-23 08:22:00,60.4,59.3,29.92,SSW,206,0.0,0.0,96,0.00,OVC,OVC,0.00,WeatherDisplay:10.34,2013-07-23 12:22:00,
2013-07-23 08:27:00,60.4,59.3,29.92,SSW,205,0.0,0.0,96,0.00,OVC,OVC,0.00,WeatherDisplay:10.34,2013-07-23 12:27:00,
2013-07-23 08:33:00,60.6,59.5,29.89,SSW,205,0.0,0.0,96,0.00,OVC,OVC,0.00,WeatherDisplay:10.34,2013-07-23 12:33:00,
2013-07-23 08:38:00,60.6,59.5,29.89,SSW,205,0.0,0.0,96,0.00,OVC,OVC,0.00,WeatherDisplay:10.34,2013-07-23 12:38:00,
2013-07-23 08:43:00,60.6,59.8,29.89,SSW,205,0.0,0.0,97,0.00,OVC,OVC,0.00,WeatherDisplay:10.34,2013-07-23 12:43:00,
2013-07-23 08:48:00,60.6,59.8,29.89,SSW,205,0.0,0.0,97,0.00,OVC,OVC,0.00,WeatherDisplay:10.34,2013-07-23 12:48:00,
2013-07-23 08:53:00,60.6,59.8,29.89,SSW,205,0.0,0.0,97,0.00,OVC,OVC,0.00,WeatherDisplay:10.34,2013-07-23 12:53:00,
2013-07-23 08:58:00,60.6,59.8,29.89,SSW,205,0.0,0.0,97,0.00,OVC,OVC,0.00,WeatherDisplay:10.34,2013-07-23 12:58:00,
2013-07-23 09:03:00,60.6,59.8,29.89,SSW,208,0.0,0.0,97,0.00,OVC,OVC,0.00,WeatherDisplay:10.34,2013-07-23 13:03:00,
2013-07-23 09:08:00,60.6,59.8,29.89,SSW,205,0.0,0.0,97,0.00,OVC,OVC,0.00,WeatherDisplay:10.34,2013-07-23 13:08:00,
2013-07-23 09:13:00,60.8,59.9,29.89,SSW,205,0.0,0.0,97,0.00,OVC,OVC,0.00,WeatherDisplay:10.34,2013-07-23 13:13:00,
2013-07-23 09:18:00,60.8,59.9,29.89,SSW,205,0.0,0.0,97,0.00,OVC,OVC,0.00,WeatherDisplay:10.34,2013-07-23 13:18:00,
2013-07-23 09:23:00,60.8,59.9,29.89,SSW,205,0.0,0.0,97,0.00,OVC,OVC,0.00,WeatherDisplay:10.34,2013-07-23 13:23:00,
2013-07-23 09:28:00,60.8,59.9,29.89,SSW,205,3.0,3.0,97,0.00,OVC,OVC,0.00,WeatherDisplay:10.34,2013-07-23 13:28:00,
2013-07-23 09:33:00,61.0,60.1,29.86,SSW,205,0.0,0.0,97,0.00,OVC,OVC,0.00,WeatherDisplay:10.34,2013-07-23 13:33:00,
2013-07-23 09:38:00,61.0,60.1,29.86,SSW,205,0.0,0.0,97,0.00,OVC,OVC,0.00,WeatherDisplay:10.34,2013-07-23 13:38:00,
2013-07-23 09:43:00,61.0,60.1,29.86,SSW,205,0.0,0.0,97,0.00,OVC,OVC,0.00,WeatherDisplay:10.34,2013-07-23 13:43:00,
2013-07-23 09:48:00,61.0,60.1,29.86,SSW,205,0.0,0.0,97,0.00,OVC,OVC,0.00,WeatherDisplay:10.34,2013-07-23 13:48:00,
2013-07-23 09:53:00,61.0,60.1,29.86,SSW,205,0.0,0.0,97,0.00,OVC,OVC,0.00,WeatherDisplay:10.34,2013-07-23 13:53:00,
2013-07-23 09:58:00,61.0,60.1,29.86,SSW,205,0.0,0.0,97,0.00,OVC,OVC,0.00,WeatherDisplay:10.34,2013-07-23 13:58:00,
2013-07-23 10:03:00,61.2,60.3,29.86,SSW,205,0.0,0.0,97,0.00,OVC,OVC,0.00,WeatherDisplay:10.34,2013-07-23 14:03:00,
2013-07-23 10:08:00,61.2,60.3,29.86,SSW,205,0.0,0.0,97,0.00,OVC,OVC,0.00,WeatherDisplay:10.34,2013-07-23 14:08:00,
2013-07-23 10:13:00,61.2,60.3,29.86,SSW,205,0.0,0.0,97,0.00,OVC,OVC,0.00,WeatherDisplay:10.34,2013-07-23 14:13:00,
2013-07-23 10:18:00,61.2,60.3,29.83,South,175,0.0,2.0,97,0.00,OVC,OVC,0.00,WeatherDisplay:10.34,2013-07-23 14:18:00,
2013-07-23 10:23:00,61.3,60.5,29.83,SSE,167,0.0,2.0,97,0.00,OVC,OVC,0.00,WeatherDisplay:10.34,2013-07-23 14:23:00,
2013-07-23 10:28:00,61.3,60.5,29.83,SSE,167,0.0,0.0,97,0.00,OVC,OVC,0.00,WeatherDisplay:10.34,2013-07-23 14:28:00,
2013-07-23 10:33:00,61.5,60.7,29.83,SSE,167,0.0,2.0,97,0.00,OVC,OVC,0.00,WeatherDisplay:10.34,2013-07-23 14:33:00,
2013-07-23 10:38:00,61.5,60.7,29.83,SSE,167,0.0,0.0,97,0.00,OVC,OVC,0.00,WeatherDisplay:10.34,2013-07-23 14:38:00,
2013-07-23 10:43:00,61.7,60.8,29.83,SSE,167,0.0,0.0,97,0.00,OVC,OVC,0.00,WeatherDisplay:10.34,2013-07-23 14:43:00,
2013-07-23 10:48:00,61.7,60.8,29.83,SSE,167,0.0,0.0,97,0.00,OVC,OVC,0.00,WeatherDisplay:10.34,2013-07-23 14:48:00,
2013-07-23 10:53:00,61.7,60.8,29.83,SE,139,0.0,0.0,97,0.00,OVC,OVC,0.00,WeatherDisplay:10.34,2013-07-23 14:53:00,
2013-07-23 10:58:00,61.7,60.8,29.83,SE,136,3.0,5.0,97,0.00,OVC,OVC,0.00,WeatherDisplay:10.34,2013-07-23 14:58:00,
2013-07-23 11:03:00,61.7,60.8,29.83,SE,144,0.0,2.0,97,0.00,OVC,OVC,0.00,WeatherDisplay:10.34,2013-07-23 15:03:00,
2013-07-23 11:08:00,61.7,60.8,29.83,NW,312,0.0,2.0,97,0.00,OVC,OVC,0.00,WeatherDisplay:10.34,2013-07-23 15:08:00,
2013-07-23 11:13:00,61.7,60.8,29.83,SE,124,0.0,6.0,97,0.00,OVC,OVC,0.00,WeatherDisplay:10.34,2013-07-23 15:13:00,
2013-07-23 11:18:00,61.9,61.0,29.83,ESE,123,0.0,0.0,97,0.00,OVC,OVC,0.00,WeatherDisplay:10.34,2013-07-23 15:18:00,
2013-07-23 11:23:00,61.9,61.0,29.83,ESE,123,0.0,0.0,97,0.00,OVC,OVC,0.00,WeatherDisplay:10.34,2013-07-23 15:23:00,
2013-07-23 11:28:00,61.7,60.8,29.83,ESE,123,0.0,0.0,97,0.00,OVC,OVC,0.00,WeatherDisplay:10.34,2013-07-23 15:28:00,
2013-07-23 11:33:00,61.7,60.8,29.83,ESE,123,0.0,0.0,97,0.00,OVC,OVC,0.00,WeatherDisplay:10.34,2013-07-23 15:33:00,
2013-07-23 11:38:00,61.7,60.8,29.83,ESE,106,0.0,0.0,97,0.00,OVC,OVC,0.00,WeatherDisplay:10.34,2013-07-23 15:38:00,
2013-07-23 11:43:00,61.9,61.0,29.83,ESE,106,0.0,0.0,97,0.00,OVC,OVC,0.00,WeatherDisplay:10.34,2013-07-23 15:43:00,
2013-07-23 11:48:00,61.7,60.8,29.83,ESE,106,0.0,0.0,97,0.00,OVC,OVC,0.00,WeatherDisplay:10.34,2013-07-23 15:48:00,
2013-07-23 11:53:00,61.9,61.0,29.83,ESE,117,0.0,0.0,97,0.00,OVC,OVC,0.00,WeatherDisplay:10.34,2013-07-23 15:53:00,
2013-07-23 11:58:00,61.9,61.0,29.83,ESE,117,0.0,0.0,97,0.00,OVC,OVC,0.00,WeatherDisplay:10.34,2013-07-23 15:58:00,
2013-07-23 12:03:00,61.9,61.0,29.83,ESE,117,0.0,0.0,97,0.00,OVC,OVC,0.00,WeatherDisplay:10.34,2013-07-23 16:03:00,
2013-07-23 12:08:00,61.9,61.0,29.83,ESE,117,0.0,0.0,97,0.00,OVC,OVC,0.00,WeatherDisplay:10.34,2013-07-23 16:08:00,
2013-07-23 12:13:00,62.1,61.2,29.83,ESE,117,0.0,0.0,97,0.00,OVC,OVC,0.00,WeatherDisplay:10.34,2013-07-23 16:13:00,
2013-07-23 12:18:00,62.1,61.2,29.80,ESE,117,0.0,0.0,97,0.00,OVC,OVC,0.00,WeatherDisplay:10.34,2013-07-23 16:18:00,
2013-07-23 12:23:00,62.2,61.4,29.80,ESE,117,0.0,0.0,97,0.00,OVC,OVC,0.00,WeatherDisplay:10.34,2013-07-23 16:23:00,
2013-07-23 12:28:00,62.1,61.2,29.80,ESE,117,0.0,0.0,97,0.00,OVC,OVC,0.00,WeatherDisplay:10.34,2013-07-23 16:28:00,
2013-07-23 12:33:00,62.1,61.2,29.80,ESE,115,0.0,0.0,97,0.00,OVC,OVC,0.00,WeatherDisplay:10.34,2013-07-23 16:33:00,
2013-07-23 12:38:00,62.2,61.4,29.80,ESE,114,0.0,0.0,97,0.00,OVC,OVC,0.00,WeatherDisplay:10.34,2013-07-23 16:38:00,
2013-07-23 12:43:00,62.2,61.4,29.80,ESE,114,0.0,0.0,97,0.00,OVC,OVC,0.00,WeatherDisplay:10.34,2013-07-23 16:43:00,
2013-07-23 12:48:00,62.2,61.4,29.80,ESE,115,0.0,0.0,97,0.00,OVC,OVC,0.00,WeatherDisplay:10.34,2013-07-23 16:48:00,
2013-07-23 12:53:00,62.4,61.6,29.80,ESE,115,0.0,0.0,97,0.00,OVC,OVC,0.00,WeatherDisplay:10.34,2013-07-23 16:53:00,
2013-07-23 12:58:00,62.4,61.6,29.80,ESE,115,0.0,0.0,97,0.00,OVC,OVC,0.00,WeatherDisplay:10.34,2013-07-23 16:58:00,
2013-07-23 13:03:00,62.4,61.6,29.80,ESE,117,0.0,0.0,97,0.00,OVC,OVC,0.00,WeatherDisplay:10.34,2013-07-23 17:03:00,
2013-07-23 13:08:00,62.6,61.7,29.80,ESE,115,0.0,3.0,97,0.00,OVC,OVC,0.00,WeatherDisplay:10.34,2013-07-23 17:08:00,
2013-07-23 13:13:00,62.6,61.7,29.80,ESE,119,0.0,0.0,97,0.00,OVC,OVC,0.00,WeatherDisplay:10.34,2013-07-23 17:13:00,
2013-07-23 13:18:00,62.6,61.7,29.80,ENE,66,0.0,0.0,97,0.00,OVC,OVC,0.00,WeatherDisplay:10.34,2013-07-23 17:18:00,
2013-07-23 13:23:00,62.8,61.9,29.80,ENE,67,0.0,3.0,97,0.00,OVC,OVC,0.00,WeatherDisplay:10.34,2013-07-23 17:23:00,
2013-07-23 13:28:00,62.8,61.9,29.80,ENE,63,0.0,0.0,97,0.00,OVC,OVC,0.00,WeatherDisplay:10.34,2013-07-23 17:28:00,
2013-07-23 13:33:00,62.8,61.9,29.77,NNE,32,0.0,6.0,97,0.00,OVC,OVC,0.00,WeatherDisplay:10.34,2013-07-23 17:33:00,
2013-07-23 13:38:00,63.0,62.1,29.77,NNE,31,0.0,0.0,97,0.00,OVC,OVC,0.00,WeatherDisplay:10.34,2013-07-23 17:38:00,
2013-07-23 13:43:00,63.1,62.3,29.77,NNE,32,0.0,0.0,97,0.00,OVC,OVC,0.00,WeatherDisplay:10.34,2013-07-23 17:43:00,
2013-07-23 13:48:00,63.1,62.3,29.77,NNE,32,0.0,0.0,97,0.00,OVC,OVC,0.00,WeatherDisplay:10.34,2013-07-23 17:48:00,
2013-07-23 13:53:00,63.1,62.3,29.77,NE,39,0.0,0.0,97,0.00,OVC,OVC,0.00,WeatherDisplay:10.34,2013-07-23 17:53:00,
2013-07-23 13:58:00,63.3,62.5,29.77,NNE,32,0.0,0.0,97,0.00,OVC,OVC,0.00,WeatherDisplay:10.34,2013-07-23 17:58:00,
2013-07-23 14:03:00,63.3,62.5,29.77,NNE,31,0.0,0.0,97,0.00,OVC,OVC,0.00,WeatherDisplay:10.34,2013-07-23 18:03:00,
2013-07-23 14:08:00,63.5,62.6,29.77,NNE,24,3.0,5.0,97,0.00,OVC,OVC,0.00,WeatherDisplay:10.34,2013-07-23 18:08:00,
2013-07-23 14:13:00,63.5,62.6,29.77,NNE,25,0.0,0.0,97,0.00,OVC,OVC,0.00,WeatherDisplay:10.34,2013-07-23 18:13:00,
2013-07-23 14:18:00,63.5,62.6,29.77,NNE,24,0.0,0.0,97,0.00,OVC,OVC,0.00,WeatherDisplay:10.34,2013-07-23 18:18:00,
2013-07-23 14:24:00,63.5,62.6,29.77,NNE,27,0.0,0.0,97,0.00,OVC,OVC,0.00,WeatherDisplay:10.34,2013-07-23 18:24:00,
2013-07-23 14:29:00,63.5,62.6,29.77,NNE,25,0.0,0.0,97,0.00,OVC,OVC,0.00,WeatherDisplay:10.34,2013-07-23 18:29:00,
2013-07-23 14:34:00,63.7,62.8,29.77,NNE,25,0.0,0.0,97,0.00,OVC,OVC,0.00,WeatherDisplay:10.34,2013-07-23 18:34:00,
2013-07-23 14:40:00,63.9,63.0,29.77,NNE,26,0.0,0.0,97,0.00,OVC,OVC,0.00,WeatherDisplay:10.34,2013-07-23 18:40:00,
2013-07-23 14:46:00,63.9,63.0,29.77,NNE,25,0.0,0.0,97,0.00,OVC,OVC,0.00,WeatherDisplay:10.34,2013-07-23 18:46:00,
2013-07-23 14:51:00,63.9,63.0,29.77,NNE,26,0.0,0.0,97,0.00,OVC,OVC,0.00,WeatherDisplay:10.34,2013-07-23 18:51:00,
2013-07-23 14:56:00,63.9,63.0,29.77,NNE,26,0.0,0.0,97,0.00,OVC,OVC,0.00,WeatherDisplay:10.34,2013-07-23 18:56:00,
2013-07-23 15:01:00,63.9,63.0,29.77,NNE,23,0.0,0.0,97,0.00,OVC,OVC,0.00,WeatherDisplay:10.34,2013-07-23 19:01:00,
2013-07-23 15:06:00,64.0,63.2,29.77,NNE,24,0.0,3.0,97,0.00,OVC,OVC,0.00,WeatherDisplay:10.34,2013-07-23 19:06:00,
2013-07-23 15:12:00,64.0,63.2,29.77,NNE,26,0.0,0.0,97,0.00,OVC,OVC,0.00,WeatherDisplay:10.34,2013-07-23 19:12:00,
2013-07-23 15:18:00,64.2,63.4,29.74,NNE,28,0.0,0.0,97,0.00,OVC,OVC,0.00,WeatherDisplay:10.34,2013-07-23 19:18:00,
2013-07-23 15:24:00,64.2,63.4,29.74,NNE,25,0.0,0.0,97,0.00,OVC,OVC,0.00,WeatherDisplay:10.34,2013-07-23 19:24:00,
2013-07-23 15:29:00,64.2,63.4,29.74,NNE,25,0.0,0.0,97,0.00,OVC,OVC,0.00,WeatherDisplay:10.34,2013-07-23 19:29:00,
2013-07-23 15:35:00,64.2,63.4,29.74,NNE,25,0.0,0.0,97,0.00,OVC,OVC,0.00,WeatherDisplay:10.34,2013-07-23 19:35:00,
2013-07-23 15:40:00,64.2,63.4,29.74,North,351,4.0,6.0,97,0.00,OVC,OVC,0.00,WeatherDisplay:10.34,2013-07-23 19:40:00,
2013-07-23 15:45:00,64.4,63.5,29.74,NNW,347,0.0,0.0,97,0.00,OVC,OVC,0.00,WeatherDisplay:10.34,2013-07-23 19:45:00,
2013-07-23 15:50:00,64.4,63.5,29.74,NNE,27,0.0,3.0,97,0.00,OVC,OVC,0.00,WeatherDisplay:10.34,2013-07-23 19:50:00,
2013-07-23 15:55:00,64.6,63.7,29.74,NNE,26,0.0,3.0,97,0.00,OVC,OVC,0.00,WeatherDisplay:10.34,2013-07-23 19:55:00,
2013-07-23 16:00:00,64.8,63.9,29.74,NNE,28,0.0,3.0,97,0.00,OVC,OVC,0.00,WeatherDisplay:10.34,2013-07-23 20:00:00,
2013-07-23 16:05:00,64.8,63.9,29.74,NNE,26,0.0,5.0,97,0.00,OVC,OVC,0.00,WeatherDisplay:10.34,2013-07-23 20:05:00,
2013-07-23 16:11:00,64.9,64.1,29.74,North,10,4.0,4.0,97,0.00,OVC,OVC,0.00,WeatherDisplay:10.34,2013-07-23 20:11:00,
2013-07-23 16:16:00,64.9,64.1,29.74,North,10,0.0,0.0,97,0.00,OVC,OVC,0.00,WeatherDisplay:10.34,2013-07-23 20:16:00,
2013-07-23 16:21:00,65.1,64.2,29.74,North,10,0.0,0.0,97,0.00,OVC,OVC,0.00,WeatherDisplay:10.34,2013-07-23 20:21:00,
2013-07-23 16:27:00,65.1,64.2,29.74,North,1,7.0,10.0,97,0.00,OVC,OVC,0.00,WeatherDisplay:10.34,2013-07-23 20:27:00,
2013-07-23 16:32:00,65.1,64.2,29.74,NE,52,3.0,3.0,97,0.00,OVC,OVC,0.00,WeatherDisplay:10.34,2013-07-23 20:32:00,
2013-07-23 16:39:00,65.5,64.6,29.73,NE,45,0.0,3.0,97,0.00,OVC,OVC,0.00,WeatherDisplay:10.34,2013-07-23 20:39:00,
2013-07-23 16:44:00,65.7,64.8,29.73,NE,45,0.0,0.0,97,0.00,OVC,OVC,0.00,WeatherDisplay:10.34,2013-07-23 20:44:00,
2013-07-23 16:49:00,65.8,65.0,29.73,NE,45,4.0,6.0,97,0.00,OVC,OVC,0.00,WeatherDisplay:10.34,2013-07-23 20:49:00,
2013-07-23 16:54:00,65.8,65.0,29.73,North,5,7.0,7.0,97,0.00,OVC,OVC,0.00,WeatherDisplay:10.34,2013-07-23 20:54:00,
2013-07-23 16:59:00,65.8,65.0,29.73,North,7,0.0,0.0,97,0.00,OVC,OVC,0.00,WeatherDisplay:10.34,2013-07-23 20:59:00,
2013-07-23 17:04:00,66.0,65.1,29.74,North,6,0.0,0.0,97,0.00,OVC,OVC,0.00,WeatherDisplay:10.34,2013-07-23 21:04:00,
2013-07-23 17:10:00,66.2,65.3,29.73,WSW,255,3.0,3.0,97,0.00,OVC,OVC,0.00,WeatherDisplay:10.34,2013-07-23 21:10:00,
2013-07-23 17:16:00,66.4,65.5,29.73,WSW,255,0.0,0.0,97,0.00,OVC,OVC,0.00,WeatherDisplay:10.34,2013-07-23 21:16:00,
2013-07-23 17:21:00,66.4,65.5,29.73,WSW,253,0.0,2.0,97,0.00,OVC,OVC,0.00,WeatherDisplay:10.34,2013-07-23 21:21:00,
2013-07-23 17:26:00,66.4,65.5,29.73,WSW,252,0.0,0.0,97,0.00,OVC,OVC,0.00,WeatherDisplay:10.34,2013-07-23 21:26:00,
2013-07-23 17:31:00,66.4,65.5,29.73,WNW,291,3.0,3.0,97,0.00,OVC,OVC,0.00,WeatherDisplay:10.34,2013-07-23 21:31:00,
2013-07-23 17:36:00,66.4,65.5,29.73,WNW,300,3.0,3.0,97,0.00,OVC,OVC,0.00,WeatherDisplay:10.34,2013-07-23 21:36:00,
2013-07-23 17:41:00,66.4,65.5,29.73,NW,308,0.0,0.0,97,0.00,OVC,OVC,0.00,WeatherDisplay:10.34,2013-07-23 21:41:00,
2013-07-23 17:46:00,66.4,65.5,29.73,NW,308,0.0,0.0,97,0.00,OVC,OVC,0.00,WeatherDisplay:10.34,2013-07-23 21:46:00,
2013-07-23 17:51:00,66.4,65.5,29.73,NNE,13,3.0,0.0,97,0.00,OVC,OVC,0.00,WeatherDisplay:10.34,2013-07-23 21:51:00,
2013-07-23 17:56:00,66.4,65.5,29.73,NNE,14,0.0,0.0,97,0.00,OVC,OVC,0.00,WeatherDisplay:10.34,2013-07-23 21:56:00,
2013-07-23 18:01:00,66.4,65.5,29.70,NE,54,0.0,5.0,97,0.00,OVC,OVC,0.00,WeatherDisplay:10.34,2013-07-23 22:01:00,
2013-07-23 18:06:00,66.7,65.9,29.70,WSW,237,0.0,8.0,97,0.00,BKN,BKN,0.00,WeatherDisplay:10.34,2013-07-23 22:06:00,
2013-07-23 18:13:00,66.9,66.0,29.70,WSW,238,0.0,0.0,97,0.00,BKN,BKN,0.00,WeatherDisplay:10.34,2013-07-23 22:13:00,
2013-07-23 18:18:00,66.9,66.0,29.70,WSW,238,0.0,0.0,97,0.00,BKN,BKN,0.00,WeatherDisplay:10.34,2013-07-23 22:18:00,
2013-07-23 18:23:00,66.9,66.0,29.70,WSW,238,0.0,0.0,97,0.00,BKN,BKN,0.00,WeatherDisplay:10.34,2013-07-23 22:23:00,
2013-07-23 18:28:00,67.1,66.2,29.70,WSW,238,0.0,0.0,97,0.00,BKN,BKN,0.00,WeatherDisplay:10.34,2013-07-23 22:28:00,
2013-07-23 18:33:00,66.9,66.0,29.70,WSW,238,0.0,0.0,97,0.00,BKN,BKN,0.00,WeatherDisplay:10.34,2013-07-23 22:33:00,
2013-07-23 18:38:00,66.9,66.0,29.70,WSW,238,0.0,0.0,97,0.00,BKN,BKN,0.00,WeatherDisplay:10.34,2013-07-23 22:38:00,
2013-07-23 18:43:00,66.7,65.9,29.70,WSW,238,0.0,0.0,97,0.00,BKN,BKN,0.00,WeatherDisplay:10.34,2013-07-23 22:43:00,
2013-07-23 18:49:00,66.6,65.7,29.74,WSW,238,0.0,0.0,97,0.00,BKN,BKN,0.00,WeatherDisplay:10.34,2013-07-23 22:49:00,
2013-07-23 18:55:00,66.4,65.5,29.74,WSW,238,0.0,0.0,97,0.00,BKN,BKN,0.00,WeatherDisplay:10.34,2013-07-23 22:55:00,
2013-07-23 19:01:00,66.4,65.5,29.74,WSW,240,0.0,0.0,97,0.00,BKN,BKN,0.00,WeatherDisplay:10.34,2013-07-23 23:01:00,
2013-07-23 19:06:00,66.4,65.5,29.74,WSW,238,0.0,0.0,97,0.00,FEW,FEW,0.00,WeatherDisplay:10.34,2013-07-23 23:06:00,
2013-07-23 19:11:00,66.4,65.5,29.74,WSW,238,0.0,0.0,97,0.00,FEW,FEW,0.00,WeatherDisplay:10.34,2013-07-23 23:11:00,
2013-07-23 19:16:00,66.4,65.5,29.74,WSW,238,0.0,0.0,97,0.00,FEW,FEW,0.00,WeatherDisplay:10.34,2013-07-23 23:16:00,
2013-07-23 19:21:00,66.4,65.5,29.74,WSW,240,0.0,0.0,97,0.00,FEW,FEW,0.00,WeatherDisplay:10.34,2013-07-23 23:21:00,
2013-07-23 19:26:00,66.4,65.5,29.74,WSW,238,0.0,0.0,97,0.00,FEW,FEW,0.00,WeatherDisplay:10.34,2013-07-23 23:26:00,
2013-07-23 19:31:00,66.2,65.3,29.74,WSW,239,0.0,0.0,97,0.00,FEW,FEW,0.00,WeatherDisplay:10.34,2013-07-23 23:31:00,
2013-07-23 19:37:00,66.2,65.3,29.74,WSW,240,0.0,0.0,97,0.00,FEW,FEW,0.00,WeatherDisplay:10.34,2013-07-23 23:37:00,
2013-07-23 19:42:00,66.2,65.3,29.74,WSW,238,0.0,0.0,97,0.00,FEW,FEW,0.00,WeatherDisplay:10.34,2013-07-23 23:42:00,
2013-07-23 19:47:00,66.2,65.3,29.74,WSW,238,0.0,0.0,97,0.00,FEW,FEW,0.00,WeatherDisplay:10.34,2013-07-23 23:47:00,
2013-07-23 19:52:00,66.0,65.1,29.74,WSW,238,0.0,0.0,97,0.00,FEW,FEW,0.00,WeatherDisplay:10.34,2013-07-23 23:52:00,
2013-07-23 19:57:00,66.0,65.1,29.74,WSW,238,0.0,0.0,97,0.00,FEW,FEW,0.00,WeatherDisplay:10.34,2013-07-23 23:57:00,
2013-07-23 20:03:00,66.0,65.1,29.77,WSW,237,0.0,0.0,97,0.00,CLR,CLR,0.00,WeatherDisplay:10.34,2013-07-24 00:03:00,
2013-07-23 20:08:00,66.0,65.1,29.77,WSW,237,0.0,0.0,97,0.00,CLR,CLR,0.00,WeatherDisplay:10.34,2013-07-24 00:08:00,
2013-07-23 20:14:00,66.0,65.1,29.77,WSW,237,0.0,0.0,97,0.00,CLR,CLR,0.00,WeatherDisplay:10.34,2013-07-24 00:14:00,
2013-07-23 20:19:00,66.0,65.1,29.74,WSW,238,0.0,0.0,97,0.00,CLR,CLR,0.00,WeatherDisplay:10.34,2013-07-24 00:19:00,
2013-07-23 20:24:00,66.0,65.1,29.74,WSW,237,0.0,0.0,97,0.00,CLR,CLR,0.00,WeatherDisplay:10.34,2013-07-24 00:24:00,
2013-07-23 20:29:00,66.0,65.1,29.74,WSW,238,0.0,0.0,97,0.00,CLR,CLR,0.00,WeatherDisplay:10.34,2013-07-24 00:29:00,
2013-07-23 20:34:00,65.8,65.0,29.77,WSW,238,0.0,0.0,97,0.00,CLR,CLR,0.00,WeatherDisplay:10.34,2013-07-24 00:34:00,
2013-07-23 20:41:00,65.7,64.5,29.77,WSW,237,0.0,0.0,96,0.00,CLR,CLR,0.00,WeatherDisplay:10.34,2013-07-24 00:41:00,
2013-07-23 20:46:00,65.5,64.3,29.74,WSW,238,0.0,0.0,96,0.00,CLR,CLR,0.00,WeatherDisplay:10.34,2013-07-24 00:46:00,
2013-07-23 20:51:00,65.5,64.3,29.74,WSW,238,0.0,0.0,96,0.00,CLR,CLR,0.00,WeatherDisplay:10.34,2013-07-24 00:51:00,
2013-07-23 20:56:00,65.3,64.4,29.74,WSW,237,0.0,0.0,97,0.00,CLR,CLR,0.00,WeatherDisplay:10.34,2013-07-24 00:56:00,
2013-07-23 21:01:00,65.1,64.2,29.77,WSW,238,0.0,0.0,97,0.00,CLR,CLR,0.00,WeatherDisplay:10.34,2013-07-24 01:01:00,
2013-07-23 21:06:00,65.1,64.2,29.77,WSW,238,0.0,0.0,97,0.00,CLR,CLR,0.00,WeatherDisplay:10.34,2013-07-24 01:06:00,
2013-07-23 21:11:00,64.9,64.1,29.77,WSW,238,0.0,0.0,97,0.00,CLR,CLR,0.00,WeatherDisplay:10.34,2013-07-24 01:11:00,
2013-07-23 21:16:00,64.8,63.9,29.74,WSW,238,0.0,0.0,97,0.00,CLR,CLR,0.00,WeatherDisplay:10.34,2013-07-24 01:16:00,
2013-07-23 21:21:00,64.8,63.9,29.74,WSW,238,0.0,0.0,97,0.00,CLR,CLR,0.00,WeatherDisplay:10.34,2013-07-24 01:21:00,
2013-07-23 21:26:00,64.6,63.7,29.74,WSW,238,0.0,0.0,97,0.00,CLR,CLR,0.00,WeatherDisplay:10.34,2013-07-24 01:26:00,
2013-07-23 21:32:00,64.4,63.5,29.77,WSW,238,0.0,0.0,97,0.00,CLR,CLR,0.00,WeatherDisplay:10.34,2013-07-24 01:32:00,
2013-07-23 21:37:00,64.4,63.5,29.77,WSW,238,0.0,0.0,97,0.00,CLR,CLR,0.00,WeatherDisplay:10.34,2013-07-24 01:37:00,
2013-07-23 21:42:00,64.2,63.4,29.77,WSW,238,0.0,0.0,97,0.00,CLR,CLR,0.00,WeatherDisplay:10.34,2013-07-24 01:42:00,
2013-07-23 21:47:00,64.2,63.1,29.77,WSW,238,0.0,0.0,96,0.00,CLR,CLR,0.00,WeatherDisplay:10.34,2013-07-24 01:47:00,
2013-07-23 21:52:00,64.2,63.4,29.77,WSW,238,0.0,0.0,97,0.00,CLR,CLR,0.00,WeatherDisplay:10.34,2013-07-24 01:52:00,
2013-07-23 21:57:00,64.0,62.9,29.77,WSW,238,0.0,0.0,96,0.00,CLR,CLR,0.00,WeatherDisplay:10.34,2013-07-24 01:57:00,
2013-07-23 22:02:00,63.9,62.7,29.77,WSW,238,0.0,0.0,96,0.00,CLR,CLR,0.00,WeatherDisplay:10.34,2013-07-24 02:02:00,
2013-07-23 22:07:00,63.9,62.7,29.77,WSW,238,0.0,0.0,96,0.00,CLR,CLR,0.00,WeatherDisplay:10.34,2013-07-24 02:07:00,
2013-07-23 22:12:00,63.7,62.5,29.77,WSW,238,0.0,0.0,96,0.00,CLR,CLR,0.00,WeatherDisplay:10.34,2013-07-24 02:12:00,
2013-07-23 22:17:00,63.7,62.5,29.77,WSW,238,0.0,0.0,96,0.00,CLR,CLR,0.00,WeatherDisplay:10.34,2013-07-24 02:17:00,
2013-07-23 22:22:00,63.5,62.3,29.77,WSW,238,0.0,0.0,96,0.00,CLR,CLR,0.00,WeatherDisplay:10.34,2013-07-24 02:22:00,
2013-07-23 22:27:00,63.5,62.3,29.77,WSW,238,0.0,0.0,96,0.00,CLR,CLR,0.00,WeatherDisplay:10.34,2013-07-24 02:27:00,
2013-07-23 22:32:00,63.5,62.3,29.74,WSW,238,0.0,0.0,96,0.00,CLR,CLR,0.00,WeatherDisplay:10.34,2013-07-24 02:32:00,
2013-07-23 22:37:00,63.5,62.3,29.74,WSW,237,0.0,0.0,96,0.00,CLR,CLR,0.00,WeatherDisplay:10.34,2013-07-24 02:37:00,
2013-07-23 22:42:00,63.5,62.3,29.74,WSW,237,0.0,0.0,96,0.00,CLR,CLR,0.00,WeatherDisplay:10.34,2013-07-24 02:42:00,
2013-07-23 22:47:00,63.3,62.2,29.77,WSW,238,0.0,2.0,96,0.00,CLR,CLR,0.00,WeatherDisplay:10.34,2013-07-24 02:47:00,
2013-07-23 22:52:00,63.3,62.2,29.77,West,271,4.0,6.0,96,0.00,CLR,CLR,0.00,WeatherDisplay:10.34,2013-07-24 02:52:00,
2013-07-23 22:57:00,63.3,62.2,29.77,West,271,0.0,0.0,96,0.00,CLR,CLR,0.00,WeatherDisplay:10.34,2013-07-24 02:57:00,
2013-07-23 23:02:00,63.3,62.2,29.77,West,271,0.0,0.0,96,0.00,CLR,CLR,0.00,WeatherDisplay:10.34,2013-07-24 03:02:00,
2013-07-23 23:07:00,63.3,62.2,29.77,West,271,0.0,0.0,96,0.00,CLR,CLR,0.00,WeatherDisplay:10.34,2013-07-24 03:07:00,
2013-07-23 23:14:00,63.5,62.3,29.77,West,271,0.0,0.0,96,0.00,CLR,CLR,0.00,WeatherDisplay:10.34,2013-07-24 03:14:00,
2013-07-23 23:20:00,63.5,62.3,29.77,West,272,0.0,0.0,96,0.00,CLR,CLR,0.00,WeatherDisplay:10.34,2013-07-24 03:20:00,
2013-07-23 23:25:00,63.3,62.2,29.77,West,271,0.0,0.0,96,0.00,CLR,CLR,0.00,WeatherDisplay:10.34,2013-07-24 03:25:00,
2013-07-23 23:33:00,63.3,62.2,29.77,West,271,0.0,0.0,96,0.00,CLR,CLR,0.00,WeatherDisplay:10.34,2013-07-24 03:33:00,
2013-07-23 23:38:00,63.3,62.2,29.77,West,271,0.0,0.0,96,0.00,CLR,CLR,0.00,WeatherDisplay:10.34,2013-07-24 03:38:00,
2013-07-23 23:43:00,63.3,62.2,29.77,West,271,0.0,0.0,96,0.00,CLR,CLR,0.00,WeatherDisplay:10.34,2013-07-24 03:43:00,
2013-07-23 23:48:00,63.3,62.2,29.77,West,273,0.0,0.0,96,0.00,CLR,CLR,0.00,WeatherDisplay:10.34,2013-07-24 03:48:00,
2013-07-23 23:53:00,63.3,62.2,29.77,West,271,0.0,0.0,96,0.00,CLR,CLR,0.00,WeatherDisplay:10.34,2013-07-24 03:53:00,
2013-07-23 23:58:00,63.3,62.2,29.77,West,271,0.0,0.0,96,0.00,CLR,CLR,0.00,WeatherDisplay:10.34,2013-07-24 03:58:00,